Time;durP1;ratioP1;P1;durP2;ratioP2;P2;SDS_P1;SDS_P2;PMS_P1;PMS_P2;Temp;Humidity;BMP_temperature;BMP_pressure;BME280_temperature;BME280_humidity;BME280_pressure;Samples;Min_cycle;Max_cycle;Signal;HPM_P1;HPM_P2
2022/04/18 04:01:31;;;;;;;7.07;4.70;;;1.50;99.90;;;;;;6249381;22;20464;-74
2022/04/18 04:03:56;;;;;;;6.72;5.10;;;1.50;99.90;;;;;;6225562;22;20012;-74
2022/04/18 04:06:22;;;;;;;7.03;4.30;;;1.50;99.90;;;;;;6252602;22;20001;-74
2022/04/18 04:08:47;;;;;;;6.50;4.57;;;1.40;99.90;;;;;;6252410;22;20054;-74
2022/04/18 04:11:13;;;;;;;6.75;4.55;;;1.20;99.90;;;;;;6252333;22;20088;-74
2022/04/18 04:13:38;;;;;;;6.80;4.90;;;1.10;99.90;;;;;;6253244;22;20087;-75
2022/04/18 04:16:04;;;;;;;6.63;4.80;;;1.10;99.90;;;;;;6252574;22;20052;-75
2022/04/18 04:18:29;;;;;;;5.40;4.50;;;1.20;99.90;;;;;;6252079;22;20059;-75
2022/04/18 04:20:55;;;;;;;7.88;5.18;;;1.30;99.90;;;;;;6252724;22;20409;-75
2022/04/18 04:23:20;;;;;;;6.20;4.25;;;1.30;99.90;;;;;;6225283;22;20080;-74
2022/04/18 04:25:46;;;;;;;6.47;4.65;;;1.20;99.90;;;;;;6252405;22;20032;-75
2022/04/18 04:28:11;;;;;;;5.53;4.55;;;1.20;99.90;;;;;;6252079;22;20036;-75
2022/04/18 04:30:37;;;;;;;7.15;5.40;;;1.20;99.90;;;;;;6252191;22;20408;-75
2022/04/18 04:33:03;;;;;;;6.38;5.00;;;1.20;99.90;;;;;;6252409;22;20415;-75
2022/04/18 04:35:28;;;;;;;6.90;5.28;;;1.30;99.90;;;;;;6225410;22;20348;-75
2022/04/18 04:37:54;;;;;;;8.18;5.38;;;1.40;99.90;;;;;;6252055;22;20009;-75
2022/04/18 04:40:19;;;;;;;7.70;5.47;;;1.50;99.90;;;;;;6252677;22;20104;-73
2022/04/18 04:42:45;;;;;;;7.10;4.55;;;1.60;99.90;;;;;;6253426;22;20067;-74
2022/04/18 04:45:10;;;;;;;9.95;5.10;;;1.60;99.90;;;;;;6226441;22;20005;-74
2022/04/18 04:47:36;;;;;;;7.28;4.93;;;1.60;99.90;;;;;;6253548;22;20075;-73
2022/04/18 04:50:02;;;;;;;7.60;4.78;;;1.70;99.90;;;;;;6226028;22;20092;-74
2022/04/18 04:52:27;;;;;;;10.52;4.97;;;1.60;99.90;;;;;;6253125;22;20469;-75
2022/04/18 04:54:53;;;;;;;6.85;4.95;;;1.60;99.90;;;;;;6226391;22;20067;-73
2022/04/18 04:57:18;;;;;;;7.50;4.90;;;1.60;99.90;;;;;;6253221;22;20012;-74
2022/04/18 04:59:44;;;;;;;6.70;4.60;;;1.60;99.90;;;;;;6226485;22;20012;-75
2022/04/18 05:02:10;;;;;;;7.10;5.10;;;1.70;99.90;;;;;;6252421;22;20019;-75
2022/04/18 05:04:35;;;;;;;8.00;5.35;;;1.60;99.90;;;;;;6226101;22;20019;-75
2022/04/18 05:07:01;;;;;;;8.20;5.53;;;1.60;99.90;;;;;;6253423;22;20076;-75
2022/04/18 05:09:26;;;;;;;9.57;6.07;;;1.60;99.90;;;;;;6252958;22;20008;-75
2022/04/18 05:11:55;;;;;;;8.88;5.68;;;1.70;99.90;;;;;;6253278;22;20008;-75
2022/04/18 05:14:22;;;;;;;8.13;5.68;;;1.70;99.90;;;;;;6253219;22;20015;-77
2022/04/18 05:16:47;;;;;;;9.40;5.07;;;1.80;99.90;;;;;;6253560;22;20001;-77
2022/04/18 05:19:13;;;;;;;6.80;5.13;;;1.90;99.90;;;;;;6253182;22;20015;-76
2022/04/18 05:21:38;;;;;;;8.82;5.60;;;1.90;99.90;;;;;;6253332;22;20005;-77
2022/04/18 05:24:05;;;;;;;6.90;5.22;;;1.90;99.90;;;;;;6253381;22;20011;-76
2022/04/18 05:26:30;;;;;;;8.57;5.32;;;2.00;99.90;;;;;;6253657;22;20024;-77
2022/04/18 05:28:56;;;;;;;8.15;5.57;;;2.00;99.90;;;;;;6252957;22;20008;-76
2022/04/18 05:31:21;;;;;;;8.02;5.00;;;2.10;99.90;;;;;;6253377;22;20004;-77
2022/04/18 05:33:47;;;;;;;7.75;5.07;;;2.20;99.90;;;;;;6253295;22;20009;-76
2022/04/18 05:36:12;;;;;;;7.40;5.88;;;2.20;99.90;;;;;;6253537;22;20451;-77
2022/04/18 05:38:39;;;;;;;6.80;5.85;;;2.40;99.90;;;;;;6252975;22;20344;-77
2022/04/18 05:41:05;;;;;;;8.48;5.82;;;2.50;99.90;;;;;;6225946;22;20005;-77
2022/04/18 05:43:30;;;;;;;9.93;6.13;;;2.60;99.90;;;;;;6226071;22;20009;-75
2022/04/18 05:45:57;;;;;;;8.98;6.10;;;2.60;99.90;;;;;;6226446;22;20005;-77
2022/04/18 05:48:23;;;;;;;8.00;5.50;;;2.70;99.90;;;;;;6252707;22;20012;-77
2022/04/18 05:50:48;;;;;;;9.23;5.97;;;2.80;99.90;;;;;;6252943;22;20380;-77
2022/04/18 05:53:16;;;;;;;9.20;5.70;;;2.80;99.90;;;;;;6253450;22;20040;-77
2022/04/18 05:55:41;;;;;;;8.80;5.55;;;2.90;99.90;;;;;;6253640;22;20547;-77
2022/04/18 05:58:07;;;;;;;7.68;5.70;;;3.00;99.90;;;;;;6253248;22;20040;-77
2022/04/18 06:00:34;;;;;;;7.10;5.20;;;3.10;99.90;;;;;;6252907;22;20424;-76
2022/04/18 06:03:00;;;;;;;10.20;5.22;;;3.20;99.90;;;;;;6253289;22;20036;-76
2022/04/18 06:05:26;;;;;;;8.25;5.40;;;3.30;99.90;;;;;;6253198;22;20001;-76
2022/04/18 06:07:52;;;;;;;9.38;5.93;;;3.40;99.90;;;;;;6252703;22;20012;-76
2022/04/18 06:10:18;;;;;;;9.40;5.63;;;3.50;99.90;;;;;;6252745;22;20016;-76
2022/04/18 06:12:43;;;;;;;8.38;5.38;;;3.60;99.90;;;;;;6252631;22;20072;-76
2022/04/18 06:15:09;;;;;;;10.20;6.43;;;3.70;99.90;;;;;;6253294;22;20008;-77
2022/04/18 06:17:35;;;;;;;9.55;6.30;;;3.80;99.90;;;;;;6253128;22;20507;-77
2022/04/18 06:20:01;;;;;;;9.20;5.70;;;4.00;99.90;;;;;;6252886;22;20055;-77
2022/04/18 06:22:26;;;;;;;10.10;5.72;;;4.10;99.90;;;;;;6225691;22;20039;-77
2022/04/18 06:24:52;;;;;;;7.55;5.38;;;4.20;99.90;;;;;;6252944;22;20012;-77
2022/04/18 06:27:17;;;;;;;8.73;5.68;;;4.30;99.90;;;;;;6253328;22;20008;-77
2022/04/18 06:29:43;;;;;;;8.57;5.70;;;4.40;99.90;;;;;;6253607;22;20067;-78
2022/04/18 06:32:09;;;;;;;9.20;5.55;;;4.40;99.90;;;;;;6252750;22;20024;-77
2022/04/18 06:34:34;;;;;;;9.65;5.50;;;4.50;99.90;;;;;;6253341;22;20045;-78
2022/04/18 06:37:00;;;;;;;7.82;5.40;;;4.60;99.90;;;;;;6253050;22;19997;-77
2022/04/18 06:39:25;;;;;;;9.85;5.70;;;4.70;99.90;;;;;;6252960;22;20044;-77
2022/04/18 06:41:51;;;;;;;7.13;5.80;;;4.80;99.90;;;;;;6253051;22;20000;-77
2022/04/18 06:44:16;;;;;;;8.88;5.35;;;5.00;99.90;;;;;;6253367;22;20039;-77
2022/04/18 06:46:43;;;;;;;7.43;5.20;;;5.20;99.90;;;;;;6253475;22;20499;-78
2022/04/18 06:49:08;;;;;;;9.73;5.07;;;5.30;99.90;;;;;;6225652;22;20440;-78
2022/04/18 06:51:34;;;;;;;8.88;5.38;;;5.50;99.90;;;;;;6252984;22;20004;-76
2022/04/18 06:53:59;;;;;;;12.00;5.07;;;5.60;99.90;;;;;;6252957;22;20004;-76
2022/04/18 06:59:09;;;;;;;8.40;5.10;;;5.90;99.90;;;;;;6253083;22;20012;-77
2022/04/18 07:01:34;;;;;;;7.20;5.03;;;6.20;99.90;;;;;;6237705;22;20445;-77
2022/04/18 07:04:00;;;;;;;10.30;5.55;;;6.30;99.90;;;;;;6253101;22;20452;-78
2022/04/18 07:06:26;;;;;;;7.40;4.57;;;6.40;99.90;;;;;;6251239;22;20009;-77
2022/04/18 07:08:51;;;;;;;7.88;4.72;;;6.50;99.90;;;;;;6253392;22;20013;-76
2022/04/18 07:11:17;;;;;;;8.63;5.18;;;6.70;99.90;;;;;;6252941;22;20004;-76
2022/04/18 07:13:42;;;;;;;7.57;4.25;;;6.90;99.90;;;;;;6251488;22;20009;-76
2022/04/18 07:16:08;;;;;;;6.05;4.57;;;6.90;99.90;;;;;;6254026;22;20024;-76
2022/04/18 07:18:37;;;;;;;8.45;4.57;;;7.10;99.90;;;;;;6254086;22;20017;-77
2022/04/18 07:21:03;;;;;;;6.82;4.65;;;7.30;99.90;;;;;;6253012;22;20004;-76
2022/04/18 07:23:29;;;;;;;7.07;4.28;;;7.40;99.70;;;;;;6253212;22;20004;-77
2022/04/18 07:25:55;;;;;;;8.15;5.05;;;7.60;99.30;;;;;;6253357;22;20000;-76
2022/04/18 07:28:21;;;;;;;6.20;4.38;;;7.70;98.60;;;;;;6250814;22;20453;-76
2022/04/18 07:30:46;;;;;;;8.80;4.60;;;8.00;98.40;;;;;;6252970;22;20004;-77
2022/04/18 07:33:14;;;;;;;8.07;4.70;;;8.10;96.80;;;;;;6255238;22;20341;-77
2022/04/18 07:35:40;;;;;;;7.25;3.90;;;8.40;96.50;;;;;;6254678;22;20475;-77
2022/04/18 07:40:50;;;;;;;8.10;4.70;;;8.70;95.50;;;;;;6252596;22;20009;-77
2022/04/18 07:43:15;;;;;;;6.70;4.03;;;8.90;95.90;;;;;;6250925;22;20016;-77
2022/04/18 07:45:41;;;;;;;7.35;4.50;;;9.10;95.10;;;;;;6252676;22;20040;-77
2022/04/18 07:48:10;;;;;;;7.78;4.57;;;9.30;95.00;;;;;;6252273;22;20295;-77
2022/04/18 07:53:20;;;;;;;8.23;4.32;;;9.50;93.70;;;;;;6252876;22;20348;-77
2022/04/18 07:55:46;;;;;;;6.85;4.47;;;9.70;93.80;;;;;;6250943;22;20080;-77
2022/04/18 07:58:12;;;;;;;6.18;3.75;;;10.00;92.70;;;;;;6251246;22;20467;-76
2022/04/18 08:00:37;;;;;;;6.15;4.13;;;10.30;92.80;;;;;;6251987;22;20008;-76
2022/04/18 08:03:03;;;;;;;7.50;4.80;;;10.40;91.30;;;;;;6225619;22;20005;-76
2022/04/18 08:05:28;;;;;;;6.45;4.72;;;10.60;92.00;;;;;;6252951;22;20005;-75
2022/04/18 08:07:54;;;;;;;6.28;4.20;;;10.80;90.70;;;;;;6225197;22;20015;-75
2022/04/18 08:10:19;;;;;;;6.63;4.53;;;11.00;90.20;;;;;;6225103;22;20070;-76
2022/04/18 08:12:45;;;;;;;8.30;4.57;;;11.10;90.60;;;;;;6252623;22;20008;-76
2022/04/18 08:15:11;;;;;;;8.43;4.55;;;11.20;89.10;;;;;;6252728;22;20020;-76
2022/04/18 08:17:36;;;;;;;5.45;4.05;;;11.30;88.80;;;;;;6252484;22;20008;-76
2022/04/18 08:20:02;;;;;;;6.35;4.45;;;11.40;87.80;;;;;;6252184;22;20009;-76
2022/04/18 08:22:28;;;;;;;6.75;4.22;;;11.50;88.60;;;;;;6252236;22;20011;-76
2022/04/18 08:24:53;;;;;;;6.50;4.13;;;11.70;88.20;;;;;;6252633;22;20011;-76
2022/04/18 08:27:19;;;;;;;6.32;4.25;;;11.80;84.50;;;;;;6252497;22;20009;-77
2022/04/18 08:29:47;;;;;;;6.28;4.45;;;12.00;85.50;;;;;;6225385;22;20022;-78
2022/04/18 08:32:13;;;;;;;10.00;4.28;;;12.10;82.80;;;;;;6252451;22;20015;-75
2022/04/18 08:34:40;;;;;;;7.10;4.43;;;12.10;84.60;;;;;;6251898;22;20080;-75
2022/04/18 08:37:07;;;;;;;8.95;5.07;;;12.10;85.20;;;;;;6252684;22;20456;-76
2022/04/18 08:39:32;;;;;;;6.10;4.40;;;12.20;84.90;;;;;;6252332;22;20087;-77
2022/04/18 08:41:59;;;;;;;6.75;4.10;;;12.30;83.00;;;;;;6252576;22;20032;-77
2022/04/18 08:44:29;;;;;;;7.13;3.90;;;12.40;85.20;;;;;;6252770;22;20009;-77
2022/04/18 08:46:56;;;;;;;5.68;4.03;;;12.60;82.20;;;;;;6252697;22;20352;-77
2022/04/18 08:54:51;;;;;;;7.03;3.47;;;13.20;79.20;;;;;;6252628;22;20012;-77
2022/04/18 08:57:17;;;;;;;5.25;3.63;;;13.50;78.10;;;;;;6252579;22;20088;-77
2022/04/18 08:59:42;;;;;;;6.70;3.55;;;13.60;75.00;;;;;;6252359;22;20009;-77
2022/04/18 09:02:08;;;;;;;4.57;3.67;;;13.70;73.80;;;;;;6244481;22;20033;-77
2022/04/18 09:04:34;;;;;;;5.57;3.38;;;13.90;71.80;;;;;;6252631;22;20074;-77
2022/04/18 09:07:18;;;;;;;6.32;3.40;;;13.90;69.90;;;;;;6252459;22;20015;-76
2022/04/18 09:09:43;;;;;;;6.15;3.38;;;13.90;69.20;;;;;;6251354;22;20012;-77
2022/04/18 09:12:20;;;;;;;6.05;3.45;;;14.10;70.60;;;;;;6252311;22;20332;-77
2022/04/18 09:14:48;;;;;;;5.57;3.15;;;14.30;70.60;;;;;;6250229;22;20015;-76
2022/04/18 09:17:28;;;;;;;4.55;3.42;;;14.20;68.40;;;;;;6252184;22;20032;-76
2022/04/18 09:20:11;;;;;;;4.78;3.30;;;14.20;67.50;;;;;;6251750;22;20005;-76
2022/04/18 09:22:47;;;;;;;4.65;3.80;;;14.30;71.10;;;;;;6251962;22;20055;-76
2022/04/18 09:25:18;;;;;;;4.55;3.55;;;14.10;69.80;;;;;;6252111;22;20074;-77
2022/04/18 09:27:56;;;;;;;5.05;3.42;;;14.00;68.80;;;;;;6250299;22;20441;-76
2022/04/18 09:30:23;;;;;;;5.55;3.45;;;14.20;68.50;;;;;;6251269;22;20012;-76
2022/04/18 09:33:07;;;;;;;5.82;3.75;;;14.30;68.30;;;;;;6251950;22;20059;-76
2022/04/18 09:35:35;;;;;;;6.25;3.72;;;14.60;68.50;;;;;;6251778;22;20098;-76
2022/04/18 09:38:08;;;;;;;5.50;3.47;;;14.40;65.80;;;;;;6251640;22;20357;-76
2022/04/18 09:40:36;;;;;;;5.28;3.78;;;14.60;68.30;;;;;;6250158;22;20004;-77
2022/04/18 09:43:02;;;;;;;5.28;3.50;;;14.90;66.60;;;;;;6251860;22;20075;-76
2022/04/18 09:45:27;;;;;;;4.40;3.28;;;15.10;63.90;;;;;;6252011;22;20036;-76
2022/04/18 09:47:55;;;;;;;5.78;3.50;;;15.20;66.60;;;;;;6252983;22;20345;-76
2022/04/18 09:53:07;;;;;;;4.38;3.00;;;15.50;64.80;;;;;;6253234;22;20031;-77
2022/04/18 09:55:32;;;;;;;6.22;3.22;;;15.60;66.10;;;;;;6254007;22;20029;-77
2022/04/18 09:58:02;;;;;;;6.97;3.60;;;15.70;62.10;;;;;;6253219;22;20094;-78
2022/04/18 10:00:28;;;;;;;5.63;3.42;;;15.60;60.70;;;;;;6252472;22;20020;-76
2022/04/18 10:02:54;;;;;;;5.18;3.30;;;15.60;61.10;;;;;;6253080;22;20008;-76
2022/04/18 10:05:20;;;;;;;7.38;3.70;;;15.50;62.80;;;;;;6253148;22;20004;-76
2022/04/18 10:07:48;;;;;;;4.55;3.20;;;15.40;61.90;;;;;;6253131;22;20092;-80
2022/04/18 10:10:14;;;;;;;5.00;3.20;;;15.70;61.40;;;;;;6253074;22;20486;-77
2022/04/18 10:12:39;;;;;;;4.32;3.28;;;15.80;63.00;;;;;;6254134;22;20009;-78
2022/04/18 10:15:05;;;;;;;4.40;3.55;;;15.70;63.20;;;;;;6253471;22;20008;-78
2022/04/18 10:17:33;;;;;;;7.22;3.70;;;15.70;61.00;;;;;;6253149;22;20005;-78
2022/04/18 10:20:04;;;;;;;6.63;4.78;;;15.90;61.00;;;;;;6254071;22;20009;-75
2022/04/18 10:23:12;;;;;;;7.00;4.40;;;16.00;59.60;;;;;;6227057;22;20011;-76
2022/04/18 10:26:08;;;;;;;5.57;3.92;;;16.40;59.80;;;;;;6228249;22;20075;-76
2022/04/18 10:28:42;;;;;;;4.32;3.22;;;16.40;60.80;;;;;;6254360;22;20084;-75
2022/04/18 10:31:12;;;;;;;6.80;4.32;;;16.40;59.50;;;;;;6254832;22;20012;-76
2022/04/18 10:33:38;;;;;;;5.20;3.15;;;16.60;61.90;;;;;;6254024;22;20008;-76
2022/04/18 10:36:09;;;;;;;13.85;5.80;;;16.50;59.80;;;;;;6254249;22;20499;-78
2022/04/18 10:38:40;;;;;;;4.57;3.30;;;16.60;58.50;;;;;;6254087;22;20357;-77
2022/04/18 10:41:31;;;;;;;6.25;3.95;;;16.70;58.30;;;;;;6253875;22;20774;-78
2022/04/18 10:44:06;;;;;;;4.50;3.22;;;16.70;58.40;;;;;;6253715;22;20034;-77
2022/04/18 10:46:32;;;;;;;6.35;3.78;;;16.80;58.40;;;;;;6253074;22;20051;-77
2022/04/18 10:48:59;;;;;;;6.32;3.83;;;17.10;58.00;;;;;;6252687;22;20016;-77
2022/04/18 10:51:28;;;;;;;5.28;3.80;;;17.00;58.10;;;;;;6252378;22;20004;-77
2022/04/18 10:54:29;;;;;;;7.53;3.40;;;16.80;59.90;;;;;;6253096;22;20459;-77
2022/04/18 10:56:54;;;;;;;5.65;3.33;;;16.80;59.20;;;;;;6176959;22;20010;-77
2022/04/18 10:59:23;;;;;;;5.20;3.17;;;17.00;62.30;;;;;;6252350;22;20009;-77
2022/04/18 11:01:49;;;;;;;4.88;3.17;;;17.20;58.90;;;;;;6251926;22;20016;-77
2022/04/18 11:04:16;;;;;;;5.20;3.08;;;17.30;57.30;;;;;;6253024;22;20012;-77
2022/04/18 11:06:43;;;;;;;5.65;2.83;;;17.40;59.80;;;;;;6253209;22;20429;-78
2022/04/18 11:09:10;;;;;;;5.13;3.15;;;17.30;59.70;;;;;;6252608;22;20016;-77
2022/04/18 11:11:56;;;;;;;4.57;3.05;;;17.30;57.60;;;;;;6252346;22;20074;-77
2022/04/18 11:14:49;;;;;;;4.10;2.80;;;17.40;57.50;;;;;;6225577;22;20012;-77
2022/04/18 11:17:39;;;;;;;4.47;2.83;;;17.60;58.10;;;;;;6235989;22;20012;-77
2022/04/18 11:20:25;;;;;;;3.95;3.03;;;17.40;56.20;;;;;;6225376;22;20012;-77
2022/04/18 11:23:17;;;;;;;5.45;3.95;;;17.60;56.50;;;;;;6252495;22;20068;-77
2022/04/18 11:26:00;;;;;;;4.13;3.28;;;17.70;57.00;;;;;;6252708;22;20008;-77
2022/04/18 11:28:39;;;;;;;4.50;2.97;;;17.50;59.90;;;;;;6252389;22;20075;-77
2022/04/18 11:31:10;;;;;;;3.90;2.80;;;17.70;55.70;;;;;;6252123;22;20053;-77
2022/04/18 11:33:42;;;;;;;4.13;2.80;;;17.80;55.40;;;;;;6252666;22;20067;-77
2022/04/18 11:36:09;;;;;;;5.88;2.80;;;17.80;57.10;;;;;;6252582;22;20062;-77
2022/04/18 11:38:35;;;;;;;4.75;2.90;;;17.90;59.00;;;;;;6252484;22;20023;-76
2022/04/18 11:41:09;;;;;;;4.40;2.97;;;17.60;55.00;;;;;;6252511;22;20028;-77
2022/04/18 11:43:34;;;;;;;4.90;2.80;;;17.80;54.10;;;;;;6226155;22;20713;-75
2022/04/18 11:46:09;;;;;;;5.95;2.88;;;18.10;58.50;;;;;;6226928;22;20063;-75
2022/04/18 11:48:35;;;;;;;6.35;2.92;;;18.60;57.20;;;;;;6253511;22;20071;-76
2022/04/18 11:51:01;;;;;;;6.65;3.20;;;18.50;53.80;;;;;;6253334;22;20011;-76
2022/04/18 11:53:35;;;;;;;4.53;2.90;;;18.20;54.10;;;;;;6226065;22;20078;-77
2022/04/18 11:56:05;;;;;;;5.13;2.88;;;18.40;54.50;;;;;;6252975;22;20039;-77
2022/04/18 11:58:40;;;;;;;5.07;2.47;;;18.60;54.40;;;;;;6254764;22;20528;-77
2022/04/18 12:06:46;;;;;;;5.97;2.90;;;19.00;54.20;;;;;;6255770;22;20067;-77
2022/04/18 12:09:15;;;;;;;4.68;2.90;;;18.90;55.80;;;;;;6227312;22;20020;-77
2022/04/18 12:11:41;;;;;;;3.78;2.80;;;18.70;53.70;;;;;;6254588;22;20005;-77
2022/04/18 12:14:07;;;;;;;4.20;2.90;;;18.60;53.70;;;;;;6257073;22;20445;-77
2022/04/18 12:16:34;;;;;;;4.18;2.85;;;18.80;55.80;;;;;;6253131;22;20008;-77
2022/04/18 12:18:59;;;;;;;3.25;2.83;;;19.10;55.90;;;;;;6225489;22;20012;-77
2022/04/18 12:21:26;;;;;;;3.35;2.80;;;19.20;54.40;;;;;;6226828;22;20009;-76
2022/04/18 12:23:54;;;;;;;5.80;3.10;;;18.80;55.00;;;;;;6253903;22;20338;-76
2022/04/18 12:26:23;;;;;;;5.68;2.70;;;18.90;55.30;;;;;;6255220;22;20025;-76
2022/04/18 12:28:48;;;;;;;4.63;2.60;;;18.80;52.30;;;;;;6256696;22;20459;-77
2022/04/18 12:31:14;;;;;;;4.68;3.00;;;19.00;54.90;;;;;;6255217;22;20004;-75
2022/04/18 12:33:48;;;;;;;4.28;2.90;;;19.20;56.30;;;;;;6256977;22;20055;-76
2022/04/18 12:36:30;;;;;;;3.92;3.08;;;19.20;53.30;;;;;;6255443;22;20001;-76
2022/04/18 12:38:56;;;;;;;3.67;2.50;;;19.20;53.60;;;;;;6255264;22;20001;-76
2022/04/18 12:41:37;;;;;;;4.00;2.75;;;19.40;52.30;;;;;;6229356;22;20028;-77
2022/04/18 12:44:11;;;;;;;3.08;2.60;;;19.50;53.10;;;;;;6227083;22;20087;-77
2022/04/18 12:46:36;;;;;;;5.15;2.85;;;19.50;55.10;;;;;;6253620;22;20021;-77
2022/04/18 12:49:05;;;;;;;6.05;2.80;;;19.70;54.70;;;;;;6253612;22;20029;-78
2022/04/18 12:51:39;;;;;;;4.85;2.80;;;19.70;54.10;;;;;;6253863;22;20012;-77
2022/04/18 12:54:16;;;;;;;3.35;2.30;;;19.80;51.40;;;;;;6258039;22;20001;-77
2022/04/18 12:56:48;;;;;;;3.42;2.58;;;19.70;50.80;;;;;;6228790;22;20005;-78
2022/04/18 12:59:28;;;;;;;3.85;2.58;;;20.00;53.70;;;;;;6252733;22;20411;-77
2022/04/18 13:02:10;;;;;;;4.15;2.72;;;20.30;52.00;;;;;;6251910;22;20017;-77
2022/04/18 13:04:36;;;;;;;4.28;2.45;;;20.30;54.80;;;;;;6254684;22;20015;-76
2022/04/18 13:07:06;;;;;;;4.55;2.33;;;20.10;51.80;;;;;;6225191;22;20135;-77
2022/04/18 13:09:32;;;;;;;3.67;2.28;;;20.30;51.40;;;;;;6253148;22;20015;-77
2022/04/18 13:12:02;;;;;;;4.60;2.50;;;20.50;49.60;;;;;;6253323;22;20008;-77
2022/04/18 13:14:28;;;;;;;2.95;2.10;;;20.40;48.90;;;;;;6253255;22;20005;-77
2022/04/18 13:17:10;;;;;;;5.57;2.53;;;20.30;51.30;;;;;;6253359;22;20005;-77
2022/04/18 13:19:37;;;;;;;3.17;2.35;;;20.70;52.40;;;;;;6253157;22;20004;-77
2022/04/18 13:22:04;;;;;;;3.40;2.40;;;20.50;53.40;;;;;;6253810;22;20013;-76
2022/04/18 13:24:30;;;;;;;2.72;2.22;;;20.60;51.50;;;;;;6253993;22;20008;-76
2022/04/18 13:26:55;;;;;;;5.65;2.45;;;20.30;50.30;;;;;;6226874;22;20012;-76
2022/04/18 13:29:21;;;;;;;3.38;2.65;;;20.10;53.10;;;;;;6253855;22;20013;-76
2022/04/18 13:31:47;;;;;;;4.78;2.40;;;20.20;53.40;;;;;;6253761;22;20008;-77
2022/04/18 13:34:12;;;;;;;3.20;2.30;;;20.30;53.60;;;;;;6254239;22;20005;-77
2022/04/18 13:36:38;;;;;;;3.65;2.40;;;20.70;52.10;;;;;;6254475;22;20000;-75
2022/04/18 13:39:06;;;;;;;3.80;2.13;;;20.50;52.20;;;;;;6254244;22;20012;-75
2022/04/18 13:41:32;;;;;;;3.70;2.22;;;20.40;51.40;;;;;;6227266;22;20013;-76
2022/04/18 13:43:58;;;;;;;3.22;2.00;;;20.90;49.80;;;;;;6254573;22;20123;-76
2022/04/18 13:46:24;;;;;;;3.25;2.28;;;21.30;54.90;;;;;;6254692;22;20039;-76
2022/04/18 13:48:50;;;;;;;2.67;2.05;;;21.60;48.90;;;;;;6253953;22;20017;-76
2022/04/18 13:51:20;;;;;;;3.90;2.45;;;21.90;50.50;;;;;;6254527;22;20039;-76
2022/04/18 13:53:47;;;;;;;4.88;2.30;;;22.40;47.30;;;;;;6253927;22;20392;-77
2022/04/18 13:56:13;;;;;;;2.33;2.13;;;22.90;48.10;;;;;;6253372;22;20067;-78
2022/04/18 13:58:39;;;;;;;3.88;2.20;;;22.90;50.20;;;;;;6253992;22;20445;-77
2022/04/18 14:01:05;;;;;;;3.17;2.17;;;22.60;46.50;;;;;;6252783;22;20452;-78
2022/04/18 14:03:32;;;;;;;2.92;2.10;;;23.60;45.80;;;;;;6253510;22;20004;-79
2022/04/18 14:05:58;;;;;;;2.17;1.85;;;24.70;45.50;;;;;;6253077;22;20012;-77
2022/04/18 14:08:24;;;;;;;3.78;2.60;;;25.00;44.10;;;;;;6252734;22;20004;-77
2022/04/18 14:10:50;;;;;;;2.25;1.90;;;24.80;41.60;;;;;;6226020;22;20099;-78
2022/04/18 14:13:16;;;;;;;2.70;1.90;;;25.70;43.60;;;;;;6253236;22;20020;-79
2022/04/18 14:21:11;;;;;;;2.10;1.70;;;25.10;41.30;;;;;;6252983;22;20123;-77
2022/04/18 14:23:37;;;;;;;2.45;2.00;;;25.30;41.90;;;;;;6253292;22;20036;-78
2022/04/18 14:26:03;;;;;;;2.83;1.90;;;25.00;40.70;;;;;;6253847;22;20446;-77
2022/04/18 14:28:29;;;;;;;3.35;2.47;;;24.90;41.50;;;;;;6228812;22;20051;-76
2022/04/18 14:30:55;;;;;;;2.40;1.88;;;25.20;40.20;;;;;;6254091;22;20075;-77
2022/04/18 14:33:21;;;;;;;2.25;1.52;;;26.40;41.80;;;;;;6253883;22;20339;-76
2022/04/18 14:35:46;;;;;;;2.28;1.65;;;26.00;39.80;;;;;;6254721;22;20075;-78
2022/04/18 14:38:14;;;;;;;2.10;1.73;;;27.80;42.00;;;;;;6254472;22;20036;-78
2022/04/18 14:40:41;;;;;;;2.30;1.90;;;27.60;38.00;;;;;;6227141;22;20072;-77
2022/04/18 14:43:07;;;;;;;2.72;1.83;;;28.10;38.10;;;;;;6254922;22;20079;-77
2022/04/18 14:45:32;;;;;;;2.55;2.00;;;28.10;39.90;;;;;;6257289;22;20051;-77
2022/04/18 14:47:58;;;;;;;2.42;1.70;;;27.00;39.80;;;;;;6255994;22;20001;-79
2022/04/18 14:50:26;;;;;;;2.97;2.00;;;27.60;39.90;;;;;;6255930;22;20058;-78
2022/04/18 14:52:52;;;;;;;3.40;1.70;;;28.50;37.70;;;;;;6256959;22;20001;-78
2022/04/18 14:55:17;;;;;;;3.47;2.25;;;29.30;38.00;;;;;;6256169;22;20012;-77
2022/04/18 14:57:43;;;;;;;1.55;1.40;;;28.50;38.60;;;;;;6256717;22;20080;-77
2022/04/18 15:00:09;;;;;;;2.30;1.70;;;29.60;36.60;;;;;;6229358;22;20021;-77
2022/04/18 15:02:35;;;;;;;2.10;1.52;;;29.30;34.60;;;;;;6256148;22;20015;-78
2022/04/18 15:05:01;;;;;;;2.08;1.70;;;28.70;35.70;;;;;;6256955;22;20009;-78
2022/04/18 15:07:27;;;;;;;2.85;2.08;;;29.20;35.90;;;;;;6256726;22;20370;-78
2022/04/18 15:09:53;;;;;;;3.00;1.63;;;28.40;34.30;;;;;;6255257;22;20001;-78
2022/04/18 15:12:18;;;;;;;3.65;1.65;;;29.50;38.00;;;;;;6255426;22;20005;-77
2022/04/18 15:14:47;;;;;;;2.28;1.88;;;30.20;34.40;;;;;;6260603;22;20005;-79
2022/04/18 15:17:12;;;;;;;2.05;1.40;;;29.70;35.20;;;;;;6226182;22;20000;-77
2022/04/18 15:19:38;;;;;;;2.78;1.60;;;29.80;34.60;;;;;;6252559;22;20043;-77
2022/04/18 15:22:04;;;;;;;2.05;1.60;;;29.90;34.10;;;;;;6225757;22;20035;-77
2022/04/18 15:24:30;;;;;;;1.95;1.67;;;31.00;33.00;;;;;;6253119;22;20100;-77
2022/04/18 15:26:56;;;;;;;1.83;1.60;;;30.50;34.50;;;;;;6253347;22;20012;-77
2022/04/18 15:29:23;;;;;;;2.45;1.70;;;30.60;36.50;;;;;;6253460;22;20035;-77
2022/04/18 15:32:07;;;;;;;1.77;1.67;;;30.00;34.10;;;;;;6253553;22;20004;-78
2022/04/18 15:34:42;;;;;;;2.33;1.48;;;31.10;32.80;;;;;;6226811;22;20103;-77
2022/04/18 15:37:11;;;;;;;2.97;2.15;;;31.20;33.30;;;;;;6226825;22;20437;-77
2022/04/18 15:39:37;;;;;;;2.60;1.55;;;31.90;32.20;;;;;;6254898;22;20040;-76
2022/04/18 15:42:03;;;;;;;2.13;1.52;;;32.20;32.50;;;;;;6254047;22;20059;-78
2022/04/18 15:44:30;;;;;;;2.83;1.67;;;30.50;31.60;;;;;;6254797;22;20004;-77
2022/04/18 15:46:58;;;;;;;2.63;1.90;;;30.70;32.60;;;;;;6226229;22;20017;-78
2022/04/18 15:49:24;;;;;;;3.60;1.65;;;30.10;34.40;;;;;;6253040;22;20405;-77
2022/04/18 15:51:52;;;;;;;4.00;1.67;;;30.60;32.80;;;;;;6252993;22;20001;-77
2022/04/18 15:54:21;;;;;;;3.05;2.40;;;30.50;34.10;;;;;;6253196;22;20004;-77
2022/04/18 15:56:47;;;;;;;2.92;2.15;;;30.80;33.10;;;;;;6226167;22;20017;-77
2022/04/18 15:59:13;;;;;;;2.72;1.77;;;30.20;33.30;;;;;;6252773;22;20776;-77
2022/04/18 16:01:39;;;;;;;2.28;1.77;;;30.30;33.00;;;;;;6252170;22;20008;-77
2022/04/18 16:04:06;;;;;;;2.20;1.80;;;30.10;32.70;;;;;;6226161;22;20032;-77
2022/04/18 16:06:32;;;;;;;2.17;1.67;;;29.40;33.20;;;;;;6253068;22;20083;-77
2022/04/18 16:08:58;;;;;;;2.92;1.70;;;29.80;32.60;;;;;;6252655;22;20088;-77
2022/04/18 16:11:23;;;;;;;3.05;2.17;;;29.50;32.80;;;;;;6252748;22;20076;-77
2022/04/18 16:13:49;;;;;;;1.60;1.42;;;30.30;34.20;;;;;;6253456;22;20373;-77
2022/04/18 16:16:21;;;;;;;1.90;1.60;;;30.10;34.80;;;;;;6225197;22;20330;-77
2022/04/18 16:18:47;;;;;;;1.70;1.52;;;29.70;33.80;;;;;;6251645;22;20019;-77
2022/04/18 16:21:13;;;;;;;2.20;1.80;;;30.70;32.80;;;;;;6252048;22;20001;-77
2022/04/18 16:23:38;;;;;;;2.03;1.67;;;30.90;31.60;;;;;;6252292;22;20009;-77
2022/04/18 16:26:05;;;;;;;1.88;1.55;;;29.20;32.90;;;;;;6252318;22;20004;-77
2022/04/18 16:28:30;;;;;;;2.60;1.63;;;29.30;33.10;;;;;;6224752;22;20008;-77
2022/04/18 16:33:40;;;;;;;2.08;1.67;;;28.60;34.70;;;;;;6251959;22;20019;-77
2022/04/18 16:36:07;;;;;;;4.28;1.88;;;29.10;33.30;;;;;;6252146;22;20332;-76
2022/04/18 16:38:32;;;;;;;2.42;1.80;;;28.20;34.00;;;;;;6251798;22;20437;-76
2022/04/18 16:46:26;;;;;;;1.88;1.60;;;28.40;35.00;;;;;;6252758;22;20012;-76
2022/04/18 16:48:52;;;;;;;3.97;2.00;;;27.50;37.30;;;;;;6251391;22;20012;-76
2022/04/18 16:51:17;;;;;;;1.67;1.50;;;27.70;34.40;;;;;;6251909;22;20030;-76
2022/04/18 16:53:43;;;;;;;3.40;1.60;;;27.50;36.90;;;;;;6251980;22;20001;-76
2022/04/18 16:56:09;;;;;;;4.18;1.42;;;27.90;37.00;;;;;;6252196;22;20008;-76
2022/04/18 16:58:35;;;;;;;2.20;1.70;;;28.20;36.50;;;;;;6251638;22;20012;-77
2022/04/18 17:01:00;;;;;;;3.05;2.00;;;27.70;36.00;;;;;;6251588;22;20084;-77
2022/04/18 17:03:26;;;;;;;2.75;1.88;;;28.00;36.20;;;;;;6252006;22;20004;-76
2022/04/18 17:05:51;;;;;;;3.78;1.83;;;26.40;36.80;;;;;;6252221;22;20023;-76
2022/04/18 17:08:17;;;;;;;3.03;1.60;;;23.40;39.90;;;;;;6251681;22;20148;-76
2022/04/18 17:10:43;;;;;;;5.65;1.90;;;21.50;44.90;;;;;;6251870;22;20387;-75
2022/04/18 17:13:11;;;;;;;2.40;1.50;;;20.00;46.80;;;;;;6252921;22;20009;-76
2022/04/18 17:15:36;;;;;;;5.38;1.92;;;19.20;48.70;;;;;;6252235;22;20011;-75
2022/04/18 17:18:05;;;;;;;2.50;1.67;;;18.50;49.20;;;;;;6251589;22;20024;-78
2022/04/18 17:20:31;;;;;;;2.13;1.63;;;18.00;50.70;;;;;;6251321;22;20360;-77
2022/04/18 17:22:56;;;;;;;3.35;1.70;;;17.80;53.00;;;;;;6252067;22;20011;-76
2022/04/18 17:25:22;;;;;;;1.52;1.30;;;17.50;54.20;;;;;;6251889;22;20083;-76
2022/04/18 17:27:49;;;;;;;1.92;1.30;;;17.30;54.60;;;;;;6252010;22;20008;-77
2022/04/18 17:30:14;;;;;;;2.63;1.77;;;17.10;57.20;;;;;;6251380;22;20023;-77